Minneapolis, Minnesota
Traffic Map
Current Weather Conditions
Minneapolis, Minnesota
Scattered Clouds
Scattered Clouds
82°
Feels Like: 86°
Wind Chill: 82° Ceiling: Unl
Heat Index: 86° Visibility: 10mi
Dew Point: 70° Wind: 13mph
Humidity: 67% Direction: 180° (S)
Pressure: 29.82in Gusts: 0mph
Raw Report DataKMSP 281906Z 18011KT 10SM SCT025 SCT250 28/21 A2982 RMK AO2 T02780211
Traffic Incident Summary
Active as of:
Severity:
Category:
InformationThere was an issue retrieving the traffic information for this location. Please try a different location or try again shortly.
Advertisements
Track Severe Weather on mobile